createdAt,value
2024-01-28T00:00:00.505Z,100872.27
2024-01-28T00:02:35.409Z,100873.96
2024-01-28T00:05:06.733Z,100875.59
2024-01-28T00:07:45.032Z,100878.98
2024-01-28T00:10:14.116Z,100881.98
2024-01-28T00:12:45.142Z,100877.66
2024-01-28T00:15:17.180Z,100883.14
2024-01-28T00:17:54.869Z,100884.16
2024-01-28T00:20:26.049Z,100886.27
2024-01-28T00:22:56.441Z,100897.48
2024-01-28T00:25:28.613Z,100893.81
2024-01-28T00:28:17.323Z,100893.30
2024-01-28T00:30:50.609Z,100898.00
2024-01-28T00:33:27.354Z,100901.88
2024-01-28T00:35:59.674Z,100903.77
2024-01-28T00:38:33.667Z,100902.84
2024-01-28T00:41:03.150Z,100904.11
2024-01-28T00:43:32.543Z,100903.95
2024-01-28T00:46:01.875Z,100904.49
2024-01-28T00:48:34.052Z,100903.58
2024-01-28T00:51:03.970Z,100906.70
2024-01-28T00:53:43.431Z,100912.88
2024-01-28T00:56:17.362Z,100912.44
2024-01-28T00:58:55.151Z,100914.69
2024-01-28T01:01:38.184Z,100911.63
2024-01-28T01:04:07.979Z,100914.70
2024-01-28T01:06:49.067Z,100916.20
2024-01-28T01:09:19.904Z,100912.44
2024-01-28T01:11:52.444Z,100918.31
2024-01-28T01:14:21.953Z,100914.81
2024-01-28T01:24:17.005Z,100926.02
2024-01-28T01:26:51.104Z,100927.92
2024-01-28T01:29:24.280Z,100929.41
2024-01-28T01:32:13.079Z,100931.20
2024-01-28T01:34:44.308Z,100931.33
2024-01-28T01:37:13.603Z,100934.75
2024-01-28T01:39:45.618Z,100940.23
2024-01-28T01:42:14.906Z,100936.39
2024-01-28T01:44:46.243Z,100948.80
2024-01-28T01:47:16.345Z,100945.09
2024-01-28T01:49:45.547Z,100949.59
2024-01-28T01:52:17.394Z,100949.30
2024-01-28T01:54:48.932Z,100955.91
2024-01-28T01:57:23.345Z,100956.81
2024-01-28T01:59:55.464Z,100959.05
2024-01-28T02:02:23.452Z,100959.13
2024-01-28T02:04:51.573Z,100959.04
2024-01-28T02:07:19.044Z,100958.89
2024-01-28T02:09:52.421Z,100967.25
2024-01-28T02:12:23.177Z,100968.98
2024-01-28T02:15:57.293Z,100974.33
2024-01-28T02:18:27.240Z,100979.35
2024-01-28T02:20:58.182Z,100991.05
2024-01-28T02:23:28.172Z,100994.56
2024-01-28T02:25:58.132Z,100998.45
2024-01-28T02:28:25.088Z,101002.72
2024-01-28T02:30:53.196Z,101007.70
2024-01-28T02:33:21.389Z,101009.11
2024-01-28T02:35:51.740Z,101012.46
2024-01-28T02:38:22.541Z,101013.98
2024-01-28T02:40:53.000Z,101014.24
2024-01-28T02:43:26.919Z,101013.29
2024-01-28T02:45:55.439Z,101018.13
2024-01-28T02:48:27.903Z,101015.27
2024-01-28T02:50:59.431Z,101022.90
2024-01-28T02:53:31.637Z,101028.48
2024-01-28T02:56:01.657Z,101029.59
2024-01-28T02:58:40.217Z,101031.46
2024-01-28T03:01:10.678Z,101031.98
2024-01-28T03:03:41.209Z,101035.27
2024-01-28T03:06:11.596Z,101036.14
2024-01-28T03:08:45.397Z,101037.05
2024-01-28T03:11:15.740Z,101037.09
2024-01-28T03:13:47.704Z,101039.20
2024-01-28T03:16:18.384Z,101045.89
2024-01-28T03:18:55.450Z,101046.92
2024-01-28T03:21:28.379Z,101048.13
2024-01-28T03:23:59.785Z,101058.68
2024-01-28T03:26:35.295Z,101066.48
2024-01-28T03:29:06.068Z,101066.05
2024-01-28T03:31:37.615Z,101069.09
2024-01-28T03:34:08.080Z,101074.04
2024-01-28T03:36:39.953Z,101075.47
2024-01-28T03:39:09.769Z,101078.52
2024-01-28T03:41:53.260Z,101085.36
2024-01-28T03:44:24.511Z,101091.35
2024-01-28T03:46:54.742Z,101088.13
2024-01-28T03:49:22.954Z,101092.77
2024-01-28T03:51:52.942Z,101097.41
2024-01-28T03:54:56.810Z,101098.33
2024-01-28T03:57:26.597Z,101101.70
2024-01-28T03:59:57.126Z,101109.13
2024-01-28T04:02:29.494Z,101109.65
2024-01-28T04:05:00.470Z,101120.27
2024-01-28T04:07:33.225Z,101127.04
2024-01-28T04:10:02.917Z,101131.78
2024-01-28T04:12:35.481Z,101136.68
2024-01-28T04:15:04.754Z,101134.02
2024-01-28T04:17:35.675Z,101137.15
2024-01-28T04:20:06.565Z,101137.83
2024-01-28T04:22:35.592Z,101135.20
2024-01-28T04:25:03.070Z,101139.34
2024-01-28T04:27:32.591Z,101141.69
2024-01-28T04:30:10.589Z,101145.75
2024-01-28T04:32:42.805Z,101150.45
2024-01-28T04:38:35.731Z,101159.95
2024-01-28T04:41:03.544Z,101168.70
2024-01-28T04:43:40.798Z,101170.66
2024-01-28T04:46:09.982Z,101172.35
2024-01-28T04:48:47.104Z,101173.48
2024-01-28T04:55:23.435Z,101182.38
2024-01-28T04:58:03.245Z,101187.60
2024-01-28T05:00:35.836Z,101187.44
2024-01-28T05:03:09.628Z,101187.57
2024-01-28T05:05:49.316Z,101194.68
2024-01-28T05:08:19.387Z,101197.90
2024-01-28T05:10:49.187Z,101199.29
2024-01-28T05:13:40.691Z,101201.17
2024-01-28T05:16:15.868Z,101204.34
2024-01-28T05:19:04.305Z,101210.92
2024-01-28T05:22:03.998Z,101212.80
2024-01-28T05:24:36.852Z,101213.68
2024-01-28T05:27:08.570Z,101224.84
2024-01-28T05:29:38.489Z,101230.51
2024-01-28T05:32:14.338Z,101238.29
2024-01-28T05:34:42.897Z,101238.58
2024-01-28T05:37:16.167Z,101239.02
2024-01-28T05:39:44.760Z,101241.11
2024-01-28T05:42:39.823Z,101234.98
2024-01-28T05:45:09.527Z,101239.12
2024-01-28T05:47:40.178Z,101243.02
2024-01-28T05:50:10.313Z,101250.88
2024-01-28T05:52:41.251Z,101254.80
2024-01-28T05:55:09.872Z,101262.66
2024-01-28T05:57:43.431Z,101265.84
2024-01-28T06:00:24.178Z,101266.30
2024-01-28T06:02:59.889Z,101271.45
2024-01-28T06:05:34.121Z,101275.20
2024-01-28T06:08:06.633Z,101275.73
2024-01-28T06:10:37.543Z,101273.65
2024-01-28T06:13:12.969Z,101277.64
2024-01-28T06:15:42.670Z,101276.06
2024-01-28T06:18:18.409Z,101280.30
2024-01-28T06:20:47.642Z,101287.51
2024-01-28T06:23:17.875Z,101286.64
2024-01-28T06:25:47.504Z,101290.14
2024-01-28T06:28:22.700Z,101289.91
2024-01-28T06:31:01.267Z,101293.24
2024-01-28T06:33:32.979Z,101296.71
2024-01-28T06:36:02.340Z,101305.48
2024-01-28T06:38:35.246Z,101310.45
2024-01-28T06:41:05.036Z,101319.77
2024-01-28T06:45:56.163Z,101330.63
2024-01-28T06:48:32.288Z,101330.85
2024-01-28T06:51:23.296Z,101331.24
2024-01-28T06:53:58.336Z,101338.65
2024-01-28T06:56:36.632Z,101342.05
2024-01-28T07:02:44.093Z,101348.77
2024-01-28T07:05:26.805Z,101351.87
2024-01-28T07:08:12.478Z,101353.64
2024-01-28T07:11:21.885Z,101356.89
2024-01-28T07:14:51.053Z,101357.61
2024-01-28T07:17:19.945Z,101357.80
2024-01-28T07:20:18.410Z,101363.77
2024-01-28T07:22:56.027Z,101369.22
2024-01-28T07:25:29.268Z,101364.48
2024-01-28T07:27:56.988Z,101369.39
2024-01-28T07:30:25.357Z,101374.41
2024-01-28T07:32:55.804Z,101375.20
2024-01-28T07:35:23.528Z,101381.72
2024-01-28T07:37:54.372Z,101384.39
2024-01-28T07:40:22.613Z,101386.67
2024-01-28T07:42:51.763Z,101389.38
2024-01-28T07:45:21.447Z,101394.69
2024-01-28T07:47:54.672Z,101398.38
2024-01-28T07:50:25.869Z,101400.67
2024-01-28T07:53:10.146Z,101403.63
2024-01-28T07:55:45.057Z,101411.62
2024-01-28T07:58:14.256Z,101415.69
2024-01-28T08:00:42.096Z,101415.95
2024-01-28T08:03:10.779Z,101430.48
2024-01-28T08:05:42.062Z,101432.34
2024-01-28T08:08:16.248Z,101437.35
2024-01-28T08:10:47.837Z,101438.54
2024-01-28T08:17:50.051Z,101454.33
2024-01-28T08:20:19.674Z,101457.73
2024-01-28T08:27:23.512Z,101464.70
2024-01-28T08:30:48.201Z,101463.73
2024-01-28T08:33:21.160Z,101469.94
2024-01-28T08:35:53.288Z,101477.30
2024-01-28T08:38:51.313Z,101477.30
2024-01-28T08:41:23.324Z,101485.50
2024-01-28T08:44:43.450Z,101483.55
2024-01-28T08:47:23.233Z,101487.55
2024-01-28T08:50:11.362Z,101492.89
2024-01-28T08:53:10.728Z,101491.95
2024-01-28T08:55:45.082Z,101492.75
2024-01-28T08:59:29.747Z,101494.20
2024-01-28T09:02:07.674Z,101499.13
2024-01-28T09:04:41.959Z,101503.23
2024-01-28T09:07:12.620Z,101505.92
2024-01-28T09:09:43.075Z,101509.23
2024-01-28T09:12:13.443Z,101505.75
2024-01-28T09:14:45.084Z,101504.06
2024-01-28T09:17:14.486Z,101505.85
2024-01-28T09:20:35.790Z,101507.30
2024-01-28T09:23:10.754Z,101508.50
2024-01-28T09:25:38.079Z,101507.63
2024-01-28T09:28:14.012Z,101504.70
2024-01-28T09:30:47.431Z,101507.08
2024-01-28T09:34:10.718Z,101508.42
2024-01-28T09:36:43.539Z,101510.05
2024-01-28T09:39:15.421Z,101507.80
2024-01-28T09:42:14.936Z,101509.52
2024-01-28T09:44:48.216Z,101504.80
2024-01-28T09:47:26.505Z,101508.25
2024-01-28T09:49:55.287Z,101506.33
2024-01-28T09:52:24.508Z,101505.17
2024-01-28T09:55:15.270Z,101504.06
2024-01-28T09:57:44.417Z,101499.81
2024-01-28T10:00:18.565Z,101505.23
2024-01-28T10:02:47.600Z,101505.30
2024-01-28T10:25:02.114Z,101532.98
2024-01-28T10:27:38.500Z,101528.31
2024-01-28T10:30:10.422Z,101524.77
2024-01-28T10:38:31.402Z,101522.95
2024-01-28T10:41:09.229Z,101518.70
2024-01-28T10:43:39.996Z,101518.13
2024-01-28T10:46:11.538Z,101517.33
2024-01-28T10:48:39.646Z,101524.44
2024-01-28T10:51:08.262Z,101524.83
2024-01-28T10:53:36.358Z,101528.68
2024-01-28T10:56:06.973Z,101530.44
2024-01-28T10:58:36.939Z,101535.35
2024-01-28T11:01:07.985Z,101539.38
2024-01-28T11:04:39.614Z,101537.06
2024-01-28T11:07:34.178Z,101542.45
2024-01-28T11:16:20.613Z,101550.16
2024-01-28T11:24:04.118Z,101553.96
2024-01-28T11:26:43.380Z,101548.78
2024-01-28T11:29:46.250Z,101550.00
2024-01-28T11:32:13.565Z,101561.59
2024-01-28T11:34:49.499Z,101557.62
2024-01-28T11:43:05.591Z,101554.88
2024-01-28T13:04:32.223Z,101646.30
2024-01-28T13:21:00.035Z,101662.52
2024-01-28T13:24:23.486Z,101667.39
2024-01-28T13:45:30.356Z,101689.18
2024-01-28T13:49:16.177Z,101687.48
2024-01-28T14:02:30.974Z,101702.77
2024-01-28T14:05:18.074Z,101706.58
2024-01-28T14:07:53.516Z,101709.96
2024-01-28T14:19:25.107Z,101717.07
2024-01-28T14:21:59.434Z,101725.13
2024-01-28T14:24:33.907Z,101727.05
2024-01-28T14:27:10.315Z,101730.73
2024-01-28T14:29:47.124Z,101727.29
2024-01-28T14:32:19.594Z,101722.83
2024-01-28T14:39:28.991Z,101732.40
2024-01-28T15:11:50.207Z,101775.93
2024-01-28T15:19:20.964Z,101780.20
2024-01-28T15:22:20.877Z,101777.58
2024-01-28T15:33:07.157Z,101785.98
2024-01-28T15:36:19.756Z,101793.67
2024-01-28T15:39:20.762Z,101797.76
2024-01-28T15:41:59.054Z,101792.81
2024-01-28T15:48:44.725Z,101795.89
2024-01-28T15:52:02.791Z,101797.08
2024-01-28T15:54:43.798Z,101799.75
2024-01-28T15:58:10.494Z,101793.14
2024-01-28T16:00:59.100Z,101801.40
2024-01-28T16:03:31.627Z,101810.15
2024-01-28T16:06:02.872Z,101808.01
2024-01-28T16:09:01.078Z,101809.30
2024-01-28T16:11:58.663Z,101815.22
2024-01-28T16:15:53.062Z,101822.58
2024-01-28T16:18:55.991Z,101826.66
2024-01-28T16:21:47.047Z,101827.45
2024-01-28T16:24:55.583Z,101834.08
2024-01-28T16:35:52.633Z,101846.02
2024-01-28T16:38:38.918Z,101849.71
2024-01-28T16:41:15.866Z,101856.16
2024-01-28T16:43:49.088Z,101863.11
2024-01-28T16:46:19.133Z,101861.35
2024-01-28T16:48:53.041Z,101866.00
2024-01-28T16:51:20.653Z,101870.08
2024-01-28T16:53:52.564Z,101878.26
2024-01-28T16:56:27.067Z,101879.02
2024-01-28T16:58:57.408Z,101882.46
2024-01-28T17:01:31.258Z,101879.27
2024-01-28T17:04:00.684Z,101883.46
2024-01-28T17:06:29.339Z,101890.58
2024-01-28T17:09:01.282Z,101892.19
2024-01-28T17:11:29.535Z,101899.52
2024-01-28T17:14:34.834Z,101902.01
2024-01-28T17:17:15.637Z,101901.08
2024-01-28T17:20:32.288Z,101902.75
2024-01-28T17:25:53.093Z,101911.80
2024-01-28T17:32:30.934Z,101908.73
2024-01-28T17:35:32.573Z,101914.14
2024-01-28T17:51:59.821Z,101930.77
2024-01-28T17:58:37.021Z,101937.84
2024-01-28T18:10:59.362Z,101947.09
2024-01-28T18:13:51.612Z,101948.59
2024-01-28T18:16:47.632Z,101953.73
2024-01-28T18:19:30.064Z,101952.70
2024-01-28T18:22:19.193Z,101953.08
2024-01-28T18:25:08.857Z,101953.59
2024-01-28T18:47:48.716Z,101963.08
2024-01-28T18:50:18.542Z,101963.17
2024-01-28T18:52:54.315Z,101965.61
2024-01-28T18:56:12.022Z,101968.23
2024-01-28T19:03:05.187Z,101972.09
2024-01-28T19:08:51.457Z,101977.09
2024-01-28T19:11:33.373Z,101976.19
2024-01-28T19:14:38.304Z,101982.35
2024-01-28T19:17:55.878Z,101989.45
2024-01-28T19:24:33.347Z,101991.99
2024-01-28T19:45:48.946Z,102017.80
2024-01-28T19:51:51.504Z,102021.33
2024-01-28T19:58:16.981Z,102021.48
2024-01-28T20:00:54.143Z,102020.11
2024-01-28T20:03:31.454Z,102016.13
2024-01-28T20:06:22.976Z,102013.27
2024-01-28T20:09:29.921Z,102016.02
2024-01-28T20:12:01.904Z,102018.85
2024-01-28T20:14:52.977Z,102016.80
2024-01-28T20:17:28.873Z,102011.70
2024-01-28T20:19:58.503Z,102013.27
2024-01-28T20:22:35.771Z,102008.79
2024-01-28T20:25:26.123Z,102009.84
2024-01-28T20:28:02.909Z,102007.98
2024-01-28T20:30:47.881Z,102013.30
2024-01-28T20:33:16.413Z,102016.91
2024-01-28T20:36:02.331Z,102012.24
2024-01-28T20:38:47.267Z,102014.63
2024-01-28T20:41:38.340Z,102018.11
2024-01-28T20:44:25.268Z,102025.21
2024-01-28T20:47:03.101Z,102023.94
2024-01-28T20:49:35.190Z,102028.97
2024-01-28T20:52:15.868Z,102029.14
2024-01-28T20:55:08.385Z,102032.48
2024-01-28T20:57:46.153Z,102033.58
2024-01-28T21:00:18.810Z,102030.45
2024-01-28T21:02:55.148Z,102039.50
2024-01-28T21:06:03.815Z,102041.59
2024-01-28T21:08:38.803Z,102036.11
2024-01-28T21:11:12.901Z,102042.26
2024-01-28T21:13:48.955Z,102044.94
2024-01-28T21:16:43.761Z,102044.30
2024-01-28T21:19:15.030Z,102050.41
2024-01-28T21:21:51.489Z,102053.89
2024-01-28T21:24:31.050Z,102057.41
2024-01-28T21:27:08.248Z,102061.43
2024-01-28T21:30:12.344Z,102063.21
2024-01-28T21:33:02.788Z,102058.48
2024-01-28T21:36:27.930Z,102062.78
2024-01-28T21:39:07.013Z,102068.35
2024-01-28T21:41:36.224Z,102067.84
2024-01-28T21:44:09.688Z,102068.02
2024-01-28T21:46:38.305Z,102072.38
2024-01-28T21:49:08.348Z,102077.42
2024-01-28T21:51:46.137Z,102074.67
2024-01-28T21:54:18.750Z,102075.25
2024-01-28T21:57:43.531Z,102072.59
2024-01-28T22:00:15.605Z,102072.56
2024-01-28T22:03:39.801Z,102068.83
2024-01-28T22:06:50.376Z,102079.64
2024-01-28T22:09:22.592Z,102077.32
2024-01-28T22:11:53.719Z,102078.73
2024-01-28T22:15:06.619Z,102076.61
2024-01-28T22:17:37.895Z,102081.34
2024-01-28T22:20:12.191Z,102082.64
2024-01-28T22:22:41.128Z,102081.95
2024-01-28T22:25:10.409Z,102084.07
2024-01-28T22:27:47.009Z,102086.53
2024-01-28T22:30:37.059Z,102085.97
2024-01-28T22:33:06.736Z,102086.33
2024-01-28T22:35:48.735Z,102086.69
2024-01-28T22:38:20.787Z,102088.16
2024-01-28T22:40:51.622Z,102090.88
2024-01-28T22:43:20.950Z,102092.31
2024-01-28T22:45:50.597Z,102092.65
2024-01-28T22:48:23.936Z,102089.68
2024-01-28T22:50:55.998Z,102092.66
2024-01-28T22:53:26.192Z,102098.95
2024-01-28T22:55:57.114Z,102096.66
2024-01-28T22:58:26.764Z,102103.83
2024-01-28T23:01:04.694Z,102104.11
2024-01-28T23:03:35.825Z,102105.46
2024-01-28T23:06:08.222Z,102104.38
2024-01-28T23:08:37.989Z,102111.04
2024-01-28T23:11:10.242Z,102114.98
2024-01-28T23:13:42.010Z,102108.40
2024-01-28T23:16:15.461Z,102107.61
2024-01-28T23:18:52.158Z,102103.66
2024-01-28T23:21:23.977Z,102107.02
2024-01-28T23:23:55.956Z,102107.72
2024-01-28T23:30:22.144Z,102118.95
2024-01-28T23:32:54.920Z,102125.17
2024-01-28T23:35:26.874Z,102119.05
2024-01-28T23:37:54.152Z,102116.80
2024-01-28T23:40:28.885Z,102118.71
2024-01-28T23:43:01.122Z,102119.77
2024-01-28T23:45:32.465Z,102117.38
2024-01-28T23:48:06.757Z,102128.55
2024-01-28T23:50:53.876Z,102133.61
2024-01-28T23:53:49.547Z,102141.13
2024-01-28T23:56:23.699Z,102146.86
2024-01-28T23:58:56.589Z,102146.85
